Hauptseite
METAR-TAF:

METAR-TAF

Flughäfen :

Heeresflugplatz Niederstetten

Niederstetten, Deutschland

Breite: 49-24N, Länge: 009-58E, Höhe: 468 m

Beobachtung

Neuester Wetterbericht von vor 35 Minuten, um 01:20 UTC
Wind 3 kt aus Süd/Südwest
Temperatur 18°C
Luftfeuchtigkeit 68%
Luftdruck 1012 hPa
Sichtweite 10 km oder mehr
Leicht bewölkt in der Höhe von 33000 ft

METAR: ETHN 210120Z 20003KT 9999 FEW330 18/12 Q1012 BLU+

Zeit: 03:55 (01:55 UTC)

Prognose

Neuester Wetterbericht von vor 16 Stunden und 22 Minuten, um 09:33 UTC
Gültige Prognose vom 20 um 08 UTC bis 20 um 17 UTC
Wind 5 kt aus Ost
Sichtweite: 1000 m
Leicht bewölkt in der Höhe von 6000 ft
Aufgelockert bewölkt in der Höhe von 12000 ft
Aufgelockert bewölkt in der Höhe von 23000 ft

TAF: ETHN 200933Z 2008/2017 09005KT 9999 NSW FEW060 SCT120 SCT230 CANCEL 1000

Wetterbeobachtungen und Prognosen von mehr als 4000 Flughäfen (METAR und TAF Bericht).

Die verfügbaren Stationen werden durch gelbe und rote Markierungen auf der Karte dargestellt.

Führen Sie die Maus auf sie, um den Namen der Station zu sehen.

Darauf klicken, um die Beobachtung von Wetterbeobachtungen und Prognosen zu sehen.

Um die Karte zu ändern : klicken Sie auf den grünen Tasten mit einem schwarzen Kreuz Zum Vergrößern, auf den grünen Button mit einem Gedankenstrich zu verkleinern, oder auf die grünen Pfeile für benachbarte Karten.


METAR-TAF: